Portada
METAR-TAF:

METAR-TAF

Aeroports :

Natashquan, Quebec, Canadà

latitud: 50-11N, longitud: 061-49W, altitud: 7 m

Observació

L'informe es va fer fa 27 minuts, a les 08:00 UTC
Vent 6 kt del Nord-Oest
Temperatura -7°C
Humitat 86%
Pressió 1016 hPa
Visibilitat: 14.5 km
Cel clar

METAR: CYNA 280800Z AUTO 31006KT 9SM CLR M07/M09 A2999 RMK SLP157

Hora: 04:27 (08:27 UTC)

Pronòstic

L'informe es va fer fa 49 minuts, a les 07:38 UTC
Pronòstic vàlid del 28 a les 08 UTC al 28 a les 20 UTC
Vent 7 kt del Oest/Nord-Oest
Visibilitat: 10 km
Cel clar
A partir de les 28 a les 1800 UTC
Vent 10 kt del Oest
Visibilitat: 10 km
Escasses núvols a una alçada de 3000 ft
Núvols disperses a una alçada de 15000 ft

TAF: CYNA 280738Z 2808/2820 30007KT P6SM SKC FM281800 26010KT P6SM FEW030 SCT150 RMK FCST BASED ON AUTO OBS. NXT FCST BY 281400Z

Observacions i pronòstics meteorològics de més de 4000 aeroports (METAR i TAF).

Les estacions disponibles són els punts grocs i vermells al mapa.

Posi el ratolí al punt desitjat per veure el nom de l'estació.

Feu clic per veure les observacions i els pronòstics meteorològics.

Per canviar el mapa: feu clic els botons verds amb una creu de color negre per apropar; al botó verd amb un guió per allunyar la imatge; o en les fletxes verdes per a mapes adjacents.


METAR-TAF: